Hammondsville, Vermont
Current Conditions -  °F | °C
As of 10:54 AM on Tuesday 21 Oct 2014 (Local Time) from KVSF Reporting Station
Light Rain Light Rain  
Wind Chill: 46°   Ceiling: 2400
Heat Index: 46°   Visibility: 3mi
Dew Point: 45°   Wind: 0mph
Humidity: 96%   Direction: NA
Pressure: 30"   Gusts: NA
Location:  43.4984°N, 72.5943°W
Report Text: KVSF 211454Z AUTO 00000KT 3SM -RA BR BKN024 OVC034 08/07 A3000 RMK AO2 SLP161 P0001 60002 T00780072 51002
Loading
Personal Weather Stations






























Interactive Weather Map New forecast layout! Learn more

10-Day Weather Forecast

Advertisements
Track Severe Weather on mobile